createdAt,value
2018-12-14T00:03:40.473Z,8.50
2018-12-14T00:08:47.445Z,10.87
2018-12-14T00:13:51.801Z,12.73
2018-12-14T00:18:57.246Z,10.20
2018-12-14T00:24:02.930Z,10.47
2018-12-14T00:29:07.198Z,10.23
2018-12-14T00:34:12.254Z,12.13
2018-12-14T00:39:16.686Z,10.63
2018-12-14T00:44:21.437Z,10.40
2018-12-14T00:49:26.507Z,10.67
2018-12-14T00:54:30.889Z,10.80
2018-12-14T00:59:36.035Z,11.43
2018-12-14T01:04:40.194Z,12.03
2018-12-14T01:09:45.978Z,9.90
2018-12-14T01:14:51.241Z,13.60
2018-12-14T01:19:55.199Z,10.60
2018-12-14T01:25:01.707Z,10.83
2018-12-14T01:30:05.958Z,10.77
2018-12-14T01:35:09.801Z,13.00
2018-12-14T01:40:13.526Z,12.00
2018-12-14T01:45:17.541Z,11.10
2018-12-14T01:50:21.651Z,11.73
2018-12-14T01:55:25.883Z,10.63
2018-12-14T02:00:29.677Z,9.00
2018-12-14T02:05:33.698Z,11.30
2018-12-14T02:10:37.914Z,11.73
2018-12-14T02:15:41.726Z,11.40
2018-12-14T02:20:45.741Z,10.90
2018-12-14T02:25:49.842Z,12.50
2018-12-14T02:30:53.962Z,12.50
2018-12-14T02:35:58.226Z,12.57
2018-12-14T02:41:02.311Z,11.23
2018-12-14T02:46:06.441Z,11.43
2018-12-14T02:51:10.220Z,12.53
2018-12-14T02:56:14.244Z,11.43
2018-12-14T03:01:18.358Z,10.80
2018-12-14T03:06:22.474Z,11.97
2018-12-14T03:11:26.584Z,12.00
2018-12-14T03:16:30.739Z,11.83
2018-12-14T03:21:34.859Z,11.63
2018-12-14T03:26:38.971Z,10.40
2018-12-14T03:31:43.108Z,12.30
2018-12-14T03:36:47.222Z,11.50
2018-12-14T03:41:51.330Z,11.70
2018-12-14T03:46:55.458Z,11.50
2018-12-14T03:51:59.574Z,11.90
2018-12-14T03:57:08.458Z,10.50
2018-12-14T04:02:12.606Z,10.97
2018-12-14T04:07:16.417Z,12.80
2018-12-14T04:12:20.463Z,11.40
2018-12-14T04:17:24.580Z,10.83
2018-12-14T04:22:28.706Z,10.50
2018-12-14T04:27:32.813Z,10.87
2018-12-14T04:32:36.937Z,11.30
2018-12-14T04:37:41.052Z,11.53
2018-12-14T04:42:48.747Z,10.67
2018-12-14T04:47:51.132Z,10.63
2018-12-14T04:52:55.245Z,10.10
2018-12-14T04:57:59.378Z,11.60
2018-12-14T05:03:03.347Z,10.63
2018-12-14T05:08:07.972Z,11.60
2018-12-14T05:13:12.698Z,10.20
2018-12-14T05:18:16.802Z,10.83
2018-12-14T05:23:20.950Z,11.13
2018-12-14T05:28:25.094Z,10.77
2018-12-14T05:33:29.211Z,11.30
2018-12-14T05:38:33.359Z,11.13
2018-12-14T05:43:37.466Z,10.57
2018-12-14T05:48:41.583Z,10.60
2018-12-14T05:53:45.369Z,10.07
2018-12-14T05:58:49.441Z,10.77
2018-12-14T06:03:53.774Z,11.33
2018-12-14T06:09:05.868Z,10.47
2018-12-14T06:14:10.132Z,10.50
2018-12-14T06:19:14.279Z,10.70
2018-12-14T06:24:18.389Z,9.60
2018-12-14T06:29:22.499Z,12.10
2018-12-14T06:34:26.612Z,10.97
2018-12-14T06:39:30.763Z,11.33
2018-12-14T06:44:34.878Z,12.17
2018-12-14T06:49:39.092Z,9.80
2018-12-14T06:54:43.201Z,10.73
2018-12-14T06:59:47.318Z,9.97
2018-12-14T07:04:51.454Z,10.17
2018-12-14T07:09:55.585Z,11.17
2018-12-14T07:14:59.718Z,10.03
2018-12-14T07:20:04.049Z,10.10
2018-12-14T07:25:08.325Z,11.20
2018-12-14T07:30:12.462Z,10.00
2018-12-14T07:35:16.588Z,11.27
2018-12-14T07:40:21.394Z,11.07
2018-12-14T07:45:25.189Z,14.33
2018-12-14T07:50:28.899Z,13.93
2018-12-14T07:55:32.937Z,11.63
2018-12-14T08:00:37.048Z,10.33
2018-12-14T08:05:41.153Z,9.83
2018-12-14T08:10:45.002Z,11.30
2018-12-14T08:15:49.454Z,14.03
2018-12-14T08:20:53.574Z,11.30
2018-12-14T08:25:57.942Z,10.90
2018-12-14T08:31:02.042Z,10.43
2018-12-14T08:36:06.061Z,11.63
2018-12-14T08:41:10.086Z,14.40
2018-12-14T08:46:15.421Z,13.23
2018-12-14T08:51:19.746Z,11.30
2018-12-14T08:56:26.321Z,12.20
2018-12-14T09:01:30.065Z,12.07
2018-12-14T09:06:34.204Z,12.57
2018-12-14T09:11:38.223Z,10.77
2018-12-14T09:16:43.138Z,10.70
2018-12-14T09:21:46.859Z,11.60
2018-12-14T09:26:50.560Z,10.40
2018-12-14T09:31:54.302Z,12.27
2018-12-14T09:36:58.023Z,10.30
2018-12-14T09:42:02.281Z,9.17
2018-12-14T09:47:06.058Z,9.03
2018-12-14T09:52:10.905Z,10.87
2018-12-14T09:57:16.696Z,9.17
2018-12-14T10:02:20.605Z,8.60
2018-12-14T10:07:24.322Z,9.80
2018-12-14T10:12:28.034Z,8.43
2018-12-14T10:17:32.030Z,8.17
2018-12-14T10:22:41.378Z,8.37
2018-12-14T10:27:41.525Z,8.23
2018-12-14T10:32:45.662Z,8.53
2018-12-14T10:37:49.503Z,8.73
2018-12-14T10:42:55.085Z,8.03
2018-12-14T10:47:59.956Z,8.50
2018-12-14T10:53:08.571Z,7.57
2018-12-14T10:58:13.573Z,8.67
2018-12-14T11:03:18.048Z,8.60
2018-12-14T11:08:23.718Z,8.90
2018-12-14T11:13:27.510Z,8.83
2018-12-14T11:18:32.483Z,7.90
2018-12-14T11:23:38.203Z,8.10
2018-12-14T11:28:43.238Z,8.70
2018-12-14T11:33:47.982Z,8.07
2018-12-14T11:38:53.044Z,9.17
2018-12-14T11:43:58.013Z,9.10
2018-12-14T11:49:03.037Z,8.33
2018-12-14T11:54:07.111Z,8.03
2018-12-14T11:59:10.991Z,7.57
2018-12-14T12:04:16.091Z,8.50
2018-12-14T12:09:21.556Z,8.13
2018-12-14T12:14:27.138Z,7.50
2018-12-14T12:19:31.963Z,7.80
2018-12-14T12:24:36.955Z,8.67
2018-12-14T12:29:40.874Z,8.93
2018-12-14T12:34:44.669Z,8.80
2018-12-14T12:39:48.388Z,8.10
2018-12-14T12:44:52.395Z,6.90
2018-12-14T12:49:56.526Z,7.17
2018-12-14T12:55:00.325Z,8.27
2018-12-14T13:00:04.675Z,7.43
2018-12-14T13:05:09.284Z,8.23
2018-12-14T13:10:13.317Z,8.63
2018-12-14T13:15:17.491Z,8.37
2018-12-14T13:20:21.287Z,8.53
2018-12-14T13:25:24.983Z,8.07
2018-12-14T13:30:28.673Z,7.47
2018-12-14T13:35:32.386Z,7.37
2018-12-14T13:40:36.114Z,8.13
2018-12-14T13:45:40.153Z,7.63
2018-12-14T13:50:44.032Z,7.47
2018-12-14T13:55:47.743Z,7.90
2018-12-14T14:00:51.437Z,9.03
2018-12-14T14:05:55.161Z,9.50
2018-12-14T14:10:58.881Z,7.70
2018-12-14T14:16:02.707Z,7.63
2018-12-14T14:21:06.638Z,8.20
2018-12-14T14:26:10.570Z,8.37
2018-12-14T14:31:15.385Z,8.50
2018-12-14T14:36:19.653Z,8.93
2018-12-14T14:41:23.410Z,7.77
2018-12-14T14:46:27.421Z,8.47
2018-12-14T14:51:31.584Z,8.17
2018-12-14T14:56:36.113Z,8.67
2018-12-14T15:01:42.320Z,7.97
2018-12-14T15:06:47.267Z,10.27
2018-12-14T15:11:52.639Z,8.67
2018-12-14T15:16:57.093Z,8.07
2018-12-14T15:22:04.749Z,8.67
2018-12-14T15:27:08.657Z,9.03
2018-12-14T15:32:13.270Z,9.33
2018-12-14T15:37:17.807Z,10.33
2018-12-14T15:42:21.590Z,8.07
2018-12-14T15:47:26.064Z,9.03
2018-12-14T15:52:31.604Z,9.33
2018-12-14T15:57:35.781Z,8.60
2018-12-14T16:02:40.038Z,9.37
2018-12-14T16:07:44.177Z,9.90
2018-12-14T16:12:49.850Z,12.00
2018-12-14T16:17:54.779Z,8.53
2018-12-14T16:22:59.269Z,10.33
2018-12-14T16:28:03.430Z,9.60
2018-12-14T16:33:08.596Z,9.40
2018-12-14T16:38:12.775Z,9.50
2018-12-14T16:43:16.771Z,9.30
2018-12-14T16:48:21.236Z,8.60
2018-12-14T16:53:26.871Z,10.70
2018-12-14T16:58:31.369Z,10.13
2018-12-14T17:03:35.811Z,13.70
2018-12-14T17:08:39.641Z,9.63
2018-12-14T17:13:45.744Z,8.83
2018-12-14T17:18:50.252Z,8.67
2018-12-14T17:23:54.357Z,8.77
2018-12-14T17:28:58.324Z,8.93
2018-12-14T17:34:03.714Z,9.37
2018-12-14T17:39:09.005Z,9.73
2018-12-14T17:44:15.226Z,9.00
2018-12-14T17:49:20.914Z,8.80
2018-12-14T17:54:24.613Z,9.77
2018-12-14T17:59:28.630Z,8.80
2018-12-14T18:04:33.301Z,9.93
2018-12-14T18:09:37.289Z,8.53
2018-12-14T18:14:42.231Z,8.43
2018-12-14T18:19:48.057Z,8.37
2018-12-14T18:24:51.861Z,9.27
2018-12-14T18:29:55.613Z,7.97
2018-12-14T18:34:59.297Z,9.73
2018-12-14T18:40:03.197Z,7.77
2018-12-14T18:45:07.517Z,7.63
2018-12-14T18:50:11.287Z,8.10
2018-12-14T18:55:15.037Z,8.10
2018-12-14T19:00:18.722Z,9.33
2018-12-14T19:05:22.590Z,9.10
2018-12-14T19:10:26.298Z,8.53
2018-12-14T19:15:30.014Z,7.90
2018-12-14T19:20:33.738Z,9.00
2018-12-14T19:25:37.462Z,9.20
2018-12-14T19:30:41.205Z,7.33
2018-12-14T19:35:44.969Z,8.03
2018-12-14T19:40:48.821Z,7.90
2018-12-14T19:45:52.970Z,7.80
2018-12-14T19:50:56.912Z,8.40
2018-12-14T19:56:00.811Z,8.63
2018-12-14T20:01:04.943Z,8.23
2018-12-14T20:06:10.649Z,9.07
2018-12-14T20:11:14.831Z,9.03
2018-12-14T20:16:18.648Z,8.13
2018-12-14T20:21:23.073Z,9.00
2018-12-14T20:26:27.031Z,8.60
2018-12-14T20:31:31.239Z,9.77
2018-12-14T20:36:35.261Z,8.20
2018-12-14T20:41:39.054Z,8.17
2018-12-14T20:46:42.949Z,7.83
2018-12-14T20:51:46.746Z,8.53
2018-12-14T20:56:51.789Z,8.50
2018-12-14T21:01:55.769Z,7.83
2018-12-14T21:07:00.654Z,8.53
2018-12-14T21:12:04.492Z,9.00
2018-12-14T21:17:10.438Z,8.33
2018-12-14T21:22:15.369Z,7.87
2018-12-14T21:27:19.526Z,7.87
2018-12-14T21:32:25.063Z,8.47
2018-12-14T21:37:29.851Z,7.53
2018-12-14T21:42:34.405Z,7.70
2018-12-14T21:47:39.627Z,9.03
2018-12-14T21:52:43.596Z,7.57
2018-12-14T21:57:48.319Z,7.50
2018-12-14T22:02:52.267Z,8.97
2018-12-14T22:07:56.929Z,8.63
2018-12-14T22:13:00.827Z,8.17
2018-12-14T22:18:04.651Z,7.57
2018-12-14T22:23:08.662Z,8.17
2018-12-14T22:28:12.546Z,8.57
2018-12-14T22:33:16.395Z,8.40
2018-12-14T22:38:20.965Z,7.10
2018-12-14T22:43:24.957Z,7.60
2018-12-14T22:48:28.932Z,7.83
2018-12-14T22:53:32.665Z,7.73
2018-12-14T22:58:36.595Z,7.93
2018-12-14T23:03:40.478Z,7.47
2018-12-14T23:08:44.253Z,7.67
2018-12-14T23:13:48.204Z,7.30
2018-12-14T23:18:52.218Z,8.17
2018-12-14T23:23:56.196Z,8.07
2018-12-14T23:29:00.069Z,7.73
2018-12-14T23:34:04.313Z,8.17
2018-12-14T23:39:08.353Z,8.07
2018-12-14T23:44:14.478Z,7.70
2018-12-14T23:49:18.560Z,8.57
2018-12-14T23:54:22.934Z,8.80
2018-12-14T23:59:27.015Z,12.20
